Skip to main content.
Our real time weather data display below is updated continuously via our 24/7 live data feed.
 TIME   TEMPERATURE   WINDSPEED   DIRECTION   HUMIDITY   BAROMETER   RAINFALL 
9:00 22.7°C (72.9°F) 3.7 kmh (2.3 mph) WSW 51% 1016.8hPa (30.03 inHg) 0.0mm (0.00 in.)
8:00 20.1°C (68.2 °F) 0.0 kmh (0.0 mph) NW 58% 1017.0hPa (30.03 inHg) 0.0mm (0.00 in.)
7:00 17.3°C (63.1 °F) 0.0 kmh (0.0 mph) NW 63% 1017.0hPa (30.03 inHg) 0.0mm (0.00 in.)
6:00 17.6°C (63.7 °F) 0.0 kmh (0.0 mph) NW 59% 1016.5hPa (30.02 inHg) 0.0mm (0.00 in.)
5:00 17.4°C (63.3 °F) 0.0 kmh (0.0 mph) NW 56% 1016.3hPa (30.01 inHg) 0.0mm (0.00 in.)
4:00 17.8°C (64.0 °F) 0.0 kmh (0.0 mph) NW 56% 1016.3hPa (30.01 inHg) 0.0mm (0.00 in.)
3:00 17.2°C (63.0 °F) 0.0 kmh (0.0 mph) NW 62% 1016.4hPa (30.01 inHg) 0.0mm (0.00 in.)
2:00 17.9°C (64.2 °F) 0.0 kmh (0.0 mph) NW 54% 1017.0hPa (30.03 inHg) 0.0mm (0.00 in.)
1:00 17.6°C (63.7 °F) 0.0 kmh (0.0 mph) NW 66% 1017.2hPa (30.04 inHg) 0.0mm (0.00 in.)
12:00 17.5°C (63.5 °F) 0.0 kmh (0.0 mph) NW 73% 1017.4hPa (30.04 inHg) 0.0mm (0.00 in.)
11:00 18.1°C (64.6 °F) 0.0 kmh (0.0 mph) NW 71% 1017.6hPa (30.05 inHg) 0.0mm (0.00 in.)
10:00 18.4°C (65.1 °F) 3.7 kmh (2.3 mph) NW 68% 1017.7hPa (30.05 inHg) 0.0mm (0.00 in.)
9:00 18.9°C (66.0 °F) 1.9 kmh (1.2 mph) NW 70% 1017.1hPa (30.03 inHg) 0.0mm (0.00 in.)
8:00 19.5°C (67.1 °F) 0.0 kmh (0.0 mph) NW 72% 1016.8hPa (30.03 inHg) 0.0mm (0.00 in.)
7:00 20.9°C (69.6 °F) 1.9 kmh (1.2 mph) NW 60% 1016.8hPa (30.03 inHg) 0.0mm (0.00 in.)
6:00 23.2°C (73.8 °F) 5.6 kmh (3.5 mph) N 49% 1017.0hPa (30.03 inHg) 0.0mm (0.00 in.)
5:00 24.2°C (75.6 °F) 3.7 kmh (2.3 mph) WNW 51% 1017.1hPa (30.03 inHg) 0.0mm (0.00 in.)
4:00 24.5°C (76.1 °F) 9.3 kmh (5.8 mph) NNW 45% 1017.4hPa (30.04 inHg) 0.0mm (0.00 in.)
3:00 24.6°C (76.3 °F) 13.0 kmh (8.1 mph) NNE 48% 1017.8hPa (30.06 inHg) 0.0mm (0.00 in.)
2:00 24.8°C (76.6 °F) 3.7 kmh (2.3 mph) W 48% 1018.0hPa (30.06 inHg) 0.0mm (0.00 in.)
1:00 25.5°C (77.9 °F) 0.0 kmh (0.0 mph) WNW 52% 1018.1hPa (30.06 inHg) 0.0mm (0.00 in.)
12:00 24.1°C (75.4 °F) 3.7 kmh (2.3 mph) SW 60% 1018.6hPa (30.08 inHg) 0.0mm (0.00 in.)
10:56 25.2°C (77.4 °F) 11.1 kmh (6.9 mph) SW 44% 1018.6hPa (30.08 inHg) 0.0mm (0.00 in.)
9:56 23.3°C (73.9 °F) 7.4 kmh (4.6 mph) NNW 63% 1018.2hPa (30.07 inHg) 0.0mm (0.00 in.)